Terminal Aerodrome Forecast
Issued by NWS

Home | Current Version | Previous Version | Text Only | Print | Product List | Glossary On
Versions: 1 2 3 4 5 6 7 8 9 10 11 12 13 14 15 16 17 18 19 20
000
FTAK31 PAFA 251739
TAFABT
TAF
PABT 251739Z 2518/2618 VRB03KT 3SM BR FEW003 BKN020 BKN100
     FM251900 VRB03KT 4SM BR VCSH SCT002 BKN060 BKN100
     FM252000 18004KT P6SM SCT025 OVC050
     FM252200 22004KT P6SM -SHRA BKN025 OVC050
     FM260800 35003KT 3SM BR VCSH SCT003 BKN060=

USA.gov is the U.S. government's official web portal to all federal, state and local government web resources and services.